sensor_id;sensor_type;location;lat;lon;timestamp;P1;durP1;ratioP1;P2;durP2;ratioP2
12703;SDS011;6416;52.182;7.650;2022-09-29T00:02:23;1.17;;;1.13;;
12703;SDS011;6416;52.182;7.650;2022-09-29T00:04:49;3.37;;;1.50;;
12703;SDS011;6416;52.182;7.650;2022-09-29T00:07:14;1.67;;;1.57;;
12703;SDS011;6416;52.182;7.650;2022-09-29T00:09:40;1.97;;;1.57;;
12703;SDS011;6416;52.182;7.650;2022-09-29T00:12:05;1.70;;;1.60;;
12703;SDS011;6416;52.182;7.650;2022-09-29T00:14:31;1.87;;;1.50;;
12703;SDS011;6416;52.182;7.650;2022-09-29T00:16:56;1.20;;;1.20;;
12703;SDS011;6416;52.182;7.650;2022-09-29T00:19:22;1.50;;;1.40;;
12703;SDS011;6416;52.182;7.650;2022-09-29T00:21:47;1.60;;;1.50;;
12703;SDS011;6416;52.182;7.650;2022-09-29T00:24:13;1.67;;;1.27;;
12703;SDS011;6416;52.182;7.650;2022-09-29T00:26:38;1.60;;;1.50;;
12703;SDS011;6416;52.182;7.650;2022-09-29T00:29:04;1.63;;;1.30;;
12703;SDS011;6416;52.182;7.650;2022-09-29T00:31:30;1.43;;;1.33;;
12703;SDS011;6416;52.182;7.650;2022-09-29T00:33:57;4.70;;;1.43;;
12703;SDS011;6416;52.182;7.650;2022-09-29T00:36:23;1.70;;;1.60;;
12703;SDS011;6416;52.182;7.650;2022-09-29T00:38:50;1.50;;;1.40;;
12703;SDS011;6416;52.182;7.650;2022-09-29T00:41:17;1.53;;;1.43;;
12703;SDS011;6416;52.182;7.650;2022-09-29T00:46:31;1.70;;;1.60;;
12703;SDS011;6416;52.182;7.650;2022-09-29T00:48:59;1.60;;;1.50;;
12703;SDS011;6416;52.182;7.650;2022-09-29T00:51:29;1.50;;;1.40;;
12703;SDS011;6416;52.182;7.650;2022-09-29T00:53:58;1.70;;;1.60;;
12703;SDS011;6416;52.182;7.650;2022-09-29T00:56:24;1.57;;;1.47;;
12703;SDS011;6416;52.182;7.650;2022-09-29T00:59:00;2.73;;;1.53;;
12703;SDS011;6416;52.182;7.650;2022-09-29T01:01:29;1.43;;;1.33;;
12703;SDS011;6416;52.182;7.650;2022-09-29T01:03:57;2.03;;;1.60;;
12703;SDS011;6416;52.182;7.650;2022-09-29T01:06:34;1.40;;;1.30;;
12703;SDS011;6416;52.182;7.650;2022-09-29T01:09:07;1.77;;;1.60;;
12703;SDS011;6416;52.182;7.650;2022-09-29T01:11:35;1.60;;;1.50;;
12703;SDS011;6416;52.182;7.650;2022-09-29T01:14:02;1.60;;;1.50;;
12703;SDS011;6416;52.182;7.650;2022-09-29T01:16:30;2.33;;;1.50;;
12703;SDS011;6416;52.182;7.650;2022-09-29T01:19:00;1.80;;;1.70;;
12703;SDS011;6416;52.182;7.650;2022-09-29T01:24:25;1.60;;;1.50;;
12703;SDS011;6416;52.182;7.650;2022-09-29T01:40:53;1.90;;;1.80;;
12703;SDS011;6416;52.182;7.650;2022-09-29T01:43:49;1.70;;;1.60;;
12703;SDS011;6416;52.182;7.650;2022-09-29T01:46:22;1.87;;;1.77;;
12703;SDS011;6416;52.182;7.650;2022-09-29T01:48:52;1.87;;;1.77;;
12703;SDS011;6416;52.182;7.650;2022-09-29T01:51:22;2.10;;;2.00;;
12703;SDS011;6416;52.182;7.650;2022-09-29T01:53:54;1.80;;;1.70;;
12703;SDS011;6416;52.182;7.650;2022-09-29T01:56:27;1.80;;;1.70;;
12703;SDS011;6416;52.182;7.650;2022-09-29T01:59:11;2.17;;;2.07;;
12703;SDS011;6416;52.182;7.650;2022-09-29T02:01:59;2.03;;;1.93;;
12703;SDS011;6416;52.182;7.650;2022-09-29T02:04:31;1.87;;;1.77;;
12703;SDS011;6416;52.182;7.650;2022-09-29T02:07:02;2.20;;;2.00;;
12703;SDS011;6416;52.182;7.650;2022-09-29T02:09:49;1.80;;;1.70;;
12703;SDS011;6416;52.182;7.650;2022-09-29T02:12:22;1.83;;;1.73;;
12703;SDS011;6416;52.182;7.650;2022-09-29T02:14:51;1.77;;;1.67;;
12703;SDS011;6416;52.182;7.650;2022-09-29T02:17:19;1.87;;;1.77;;
12703;SDS011;6416;52.182;7.650;2022-09-29T02:19:49;1.90;;;1.80;;
12703;SDS011;6416;52.182;7.650;2022-09-29T02:22:16;2.07;;;1.87;;
12703;SDS011;6416;52.182;7.650;2022-09-29T02:24:42;2.00;;;1.90;;
12703;SDS011;6416;52.182;7.650;2022-09-29T02:27:08;2.63;;;2.43;;
12703;SDS011;6416;52.182;7.650;2022-09-29T02:29:34;2.40;;;2.20;;
12703;SDS011;6416;52.182;7.650;2022-09-29T02:32:02;2.53;;;2.33;;
12703;SDS011;6416;52.182;7.650;2022-09-29T02:34:29;6.80;;;2.17;;
12703;SDS011;6416;52.182;7.650;2022-09-29T02:37:08;4.87;;;2.20;;
12703;SDS011;6416;52.182;7.650;2022-09-29T02:48:18;4.33;;;1.83;;
12703;SDS011;6416;52.182;7.650;2022-09-29T02:51:01;1.80;;;1.70;;
12703;SDS011;6416;52.182;7.650;2022-09-29T02:56:37;2.07;;;1.70;;
12703;SDS011;6416;52.182;7.650;2022-09-29T02:59:08;1.90;;;1.80;;
12703;SDS011;6416;52.182;7.650;2022-09-29T03:01:48;2.03;;;1.90;;
12703;SDS011;6416;52.182;7.650;2022-09-29T03:04:16;1.87;;;1.77;;
12703;SDS011;6416;52.182;7.650;2022-09-29T03:06:42;2.07;;;1.93;;
12703;SDS011;6416;52.182;7.650;2022-09-29T03:09:08;2.37;;;2.17;;
12703;SDS011;6416;52.182;7.650;2022-09-29T03:11:33;1.90;;;1.80;;
12703;SDS011;6416;52.182;7.650;2022-09-29T03:13:59;1.93;;;1.83;;
12703;SDS011;6416;52.182;7.650;2022-09-29T03:16:24;1.93;;;1.77;;
12703;SDS011;6416;52.182;7.650;2022-09-29T03:18:50;1.73;;;1.63;;
12703;SDS011;6416;52.182;7.650;2022-09-29T03:21:15;1.73;;;1.60;;
12703;SDS011;6416;52.182;7.650;2022-09-29T03:23:40;2.00;;;1.80;;
12703;SDS011;6416;52.182;7.650;2022-09-29T03:26:06;1.80;;;1.70;;
12703;SDS011;6416;52.182;7.650;2022-09-29T03:28:31;2.00;;;1.90;;
12703;SDS011;6416;52.182;7.650;2022-09-29T03:31:02;2.30;;;2.10;;
12703;SDS011;6416;52.182;7.650;2022-09-29T03:33:29;2.50;;;2.30;;
12703;SDS011;6416;52.182;7.650;2022-09-29T03:35:54;2.90;;;2.53;;
12703;SDS011;6416;52.182;7.650;2022-09-29T03:38:20;2.70;;;2.50;;
12703;SDS011;6416;52.182;7.650;2022-09-29T03:40:45;2.77;;;2.57;;
12703;SDS011;6416;52.182;7.650;2022-09-29T03:43:11;2.43;;;2.23;;
12703;SDS011;6416;52.182;7.650;2022-09-29T03:45:36;2.20;;;2.07;;
12703;SDS011;6416;52.182;7.650;2022-09-29T03:48:01;2.07;;;1.87;;
12703;SDS011;6416;52.182;7.650;2022-09-29T03:50:27;3.10;;;2.80;;
12703;SDS011;6416;52.182;7.650;2022-09-29T03:52:52;2.77;;;2.57;;
12703;SDS011;6416;52.182;7.650;2022-09-29T03:55:18;2.73;;;2.53;;
12703;SDS011;6416;52.182;7.650;2022-09-29T03:57:44;2.90;;;2.70;;
12703;SDS011;6416;52.182;7.650;2022-09-29T04:00:10;2.70;;;2.50;;
12703;SDS011;6416;52.182;7.650;2022-09-29T04:02:36;2.60;;;2.40;;
12703;SDS011;6416;52.182;7.650;2022-09-29T04:05:01;3.23;;;2.93;;
12703;SDS011;6416;52.182;7.650;2022-09-29T04:07:27;2.50;;;2.30;;
12703;SDS011;6416;52.182;7.650;2022-09-29T04:09:52;2.83;;;2.63;;
12703;SDS011;6416;52.182;7.650;2022-09-29T04:12:18;5.30;;;3.53;;
12703;SDS011;6416;52.182;7.650;2022-09-29T04:14:43;3.87;;;3.47;;
12703;SDS011;6416;52.182;7.650;2022-09-29T04:17:08;4.33;;;2.97;;
12703;SDS011;6416;52.182;7.650;2022-09-29T04:19:34;2.87;;;2.53;;
12703;SDS011;6416;52.182;7.650;2022-09-29T04:21:59;3.87;;;2.27;;
12703;SDS011;6416;52.182;7.650;2022-09-29T04:24:25;3.87;;;2.77;;
12703;SDS011;6416;52.182;7.650;2022-09-29T04:26:50;2.33;;;2.20;;
12703;SDS011;6416;52.182;7.650;2022-09-29T04:29:16;3.27;;;2.97;;
12703;SDS011;6416;52.182;7.650;2022-09-29T04:31:41;3.37;;;3.07;;
12703;SDS011;6416;52.182;7.650;2022-09-29T04:34:07;5.47;;;3.70;;
12703;SDS011;6416;52.182;7.650;2022-09-29T04:36:32;5.00;;;3.03;;
12703;SDS011;6416;52.182;7.650;2022-09-29T04:39:01;4.93;;;3.50;;
12703;SDS011;6416;52.182;7.650;2022-09-29T04:41:26;6.27;;;3.37;;
12703;SDS011;6416;52.182;7.650;2022-09-29T04:43:52;7.23;;;4.10;;
12703;SDS011;6416;52.182;7.650;2022-09-29T04:46:17;8.73;;;4.30;;
12703;SDS011;6416;52.182;7.650;2022-09-29T04:48:43;8.00;;;4.40;;
12703;SDS011;6416;52.182;7.650;2022-09-29T04:51:08;13.83;;;4.87;;
12703;SDS011;6416;52.182;7.650;2022-09-29T04:53:34;11.70;;;3.97;;
12703;SDS011;6416;52.182;7.650;2022-09-29T04:56:03;16.13;;;4.37;;
12703;SDS011;6416;52.182;7.650;2022-09-29T04:58:29;4.90;;;4.03;;
12703;SDS011;6416;52.182;7.650;2022-09-29T05:00:54;13.30;;;4.77;;
12703;SDS011;6416;52.182;7.650;2022-09-29T05:03:20;13.13;;;3.97;;
12703;SDS011;6416;52.182;7.650;2022-09-29T05:05:45;14.07;;;3.97;;
12703;SDS011;6416;52.182;7.650;2022-09-29T05:08:11;10.30;;;4.47;;
12703;SDS011;6416;52.182;7.650;2022-09-29T05:10:36;17.67;;;4.20;;
12703;SDS011;6416;52.182;7.650;2022-09-29T05:13:02;15.97;;;4.57;;
12703;SDS011;6416;52.182;7.650;2022-09-29T05:15:27;5.87;;;3.67;;
12703;SDS011;6416;52.182;7.650;2022-09-29T05:17:53;8.17;;;4.30;;
12703;SDS011;6416;52.182;7.650;2022-09-29T05:20:18;14.13;;;4.37;;
12703;SDS011;6416;52.182;7.650;2022-09-29T05:22:44;4.47;;;4.07;;
12703;SDS011;6416;52.182;7.650;2022-09-29T05:25:09;5.20;;;4.27;;
12703;SDS011;6416;52.182;7.650;2022-09-29T05:27:35;10.77;;;4.70;;
12703;SDS011;6416;52.182;7.650;2022-09-29T05:30:01;5.90;;;4.77;;
12703;SDS011;6416;52.182;7.650;2022-09-29T05:32:27;7.37;;;4.73;;
12703;SDS011;6416;52.182;7.650;2022-09-29T05:34:53;7.97;;;4.23;;
12703;SDS011;6416;52.182;7.650;2022-09-29T05:37:18;5.70;;;4.23;;
12703;SDS011;6416;52.182;7.650;2022-09-29T05:39:43;8.47;;;4.67;;
12703;SDS011;6416;52.182;7.650;2022-09-29T05:42:10;8.10;;;4.73;;
12703;SDS011;6416;52.182;7.650;2022-09-29T05:44:36;6.07;;;4.90;;
12703;SDS011;6416;52.182;7.650;2022-09-29T05:47:04;8.83;;;5.13;;
12703;SDS011;6416;52.182;7.650;2022-09-29T05:49:30;11.47;;;5.90;;
12703;SDS011;6416;52.182;7.650;2022-09-29T05:51:55;5.43;;;4.93;;
12703;SDS011;6416;52.182;7.650;2022-09-29T05:54:20;6.43;;;5.77;;
12703;SDS011;6416;52.182;7.650;2022-09-29T05:56:46;9.17;;;5.57;;
12703;SDS011;6416;52.182;7.650;2022-09-29T05:59:11;9.10;;;5.50;;
12703;SDS011;6416;52.182;7.650;2022-09-29T06:01:37;7.60;;;6.07;;
12703;SDS011;6416;52.182;7.650;2022-09-29T06:04:03;9.53;;;5.57;;
12703;SDS011;6416;52.182;7.650;2022-09-29T06:06:28;20.03;;;6.50;;
12703;SDS011;6416;52.182;7.650;2022-09-29T06:08:55;6.27;;;5.67;;
12703;SDS011;6416;52.182;7.650;2022-09-29T06:11:22;11.13;;;6.77;;
12703;SDS011;6416;52.182;7.650;2022-09-29T06:13:50;10.40;;;6.83;;
12703;SDS011;6416;52.182;7.650;2022-09-29T06:16:18;8.20;;;6.63;;
12703;SDS011;6416;52.182;7.650;2022-09-29T06:18:45;8.70;;;6.70;;
12703;SDS011;6416;52.182;7.650;2022-09-29T06:21:12;8.50;;;6.37;;
12703;SDS011;6416;52.182;7.650;2022-09-29T06:23:39;8.80;;;6.30;;
12703;SDS011;6416;52.182;7.650;2022-09-29T06:26:07;10.07;;;6.07;;
12703;SDS011;6416;52.182;7.650;2022-09-29T06:28:39;10.23;;;6.17;;
12703;SDS011;6416;52.182;7.650;2022-09-29T06:31:06;17.57;;;6.50;;
12703;SDS011;6416;52.182;7.650;2022-09-29T06:33:34;14.33;;;6.27;;
12703;SDS011;6416;52.182;7.650;2022-09-29T06:36:00;7.10;;;5.67;;
12703;SDS011;6416;52.182;7.650;2022-09-29T06:38:29;13.60;;;5.50;;
12703;SDS011;6416;52.182;7.650;2022-09-29T06:40:54;8.90;;;5.97;;
12703;SDS011;6416;52.182;7.650;2022-09-29T06:43:20;7.77;;;5.13;;
12703;SDS011;6416;52.182;7.650;2022-09-29T06:45:45;5.73;;;5.23;;
12703;SDS011;6416;52.182;7.650;2022-09-29T06:48:11;8.97;;;5.77;;
12703;SDS011;6416;52.182;7.650;2022-09-29T06:50:36;9.40;;;6.30;;
12703;SDS011;6416;52.182;7.650;2022-09-29T06:53:01;8.23;;;6.60;;
12703;SDS011;6416;52.182;7.650;2022-09-29T06:55:27;6.93;;;6.20;;
12703;SDS011;6416;52.182;7.650;2022-09-29T06:57:53;11.13;;;5.67;;
12703;SDS011;6416;52.182;7.650;2022-09-29T07:00:18;10.23;;;5.83;;
12703;SDS011;6416;52.182;7.650;2022-09-29T07:02:44;9.10;;;5.87;;
12703;SDS011;6416;52.182;7.650;2022-09-29T07:05:10;6.97;;;6.20;;
12703;SDS011;6416;52.182;7.650;2022-09-29T07:07:35;6.93;;;6.33;;
12703;SDS011;6416;52.182;7.650;2022-09-29T07:10:01;6.60;;;6.00;;
12703;SDS011;6416;52.182;7.650;2022-09-29T07:12:26;6.93;;;5.87;;
12703;SDS011;6416;52.182;7.650;2022-09-29T07:14:52;8.03;;;6.47;;
12703;SDS011;6416;52.182;7.650;2022-09-29T07:17:17;6.77;;;6.17;;
12703;SDS011;6416;52.182;7.650;2022-09-29T07:19:43;7.87;;;6.67;;
12703;SDS011;6416;52.182;7.650;2022-09-29T07:22:08;7.63;;;6.27;;
12703;SDS011;6416;52.182;7.650;2022-09-29T07:24:34;8.83;;;6.07;;
12703;SDS011;6416;52.182;7.650;2022-09-29T07:27:00;7.10;;;6.43;;
12703;SDS011;6416;52.182;7.650;2022-09-29T07:29:25;7.40;;;6.70;;
12703;SDS011;6416;52.182;7.650;2022-09-29T07:31:51;7.57;;;6.87;;
12703;SDS011;6416;52.182;7.650;2022-09-29T07:34:17;7.83;;;7.13;;
12703;SDS011;6416;52.182;7.650;2022-09-29T07:36:43;7.87;;;7.17;;
12703;SDS011;6416;52.182;7.650;2022-09-29T07:39:09;7.73;;;6.93;;
12703;SDS011;6416;52.182;7.650;2022-09-29T07:41:34;7.73;;;6.97;;
12703;SDS011;6416;52.182;7.650;2022-09-29T07:43:59;8.60;;;7.70;;
12703;SDS011;6416;52.182;7.650;2022-09-29T07:46:25;8.47;;;7.37;;
12703;SDS011;6416;52.182;7.650;2022-09-29T07:48:51;8.77;;;7.97;;
12703;SDS011;6416;52.182;7.650;2022-09-29T07:51:17;8.50;;;7.70;;
12703;SDS011;6416;52.182;7.650;2022-09-29T07:53:43;8.90;;;8.10;;
12703;SDS011;6416;52.182;7.650;2022-09-29T07:56:27;8.77;;;7.97;;
12703;SDS011;6416;52.182;7.650;2022-09-29T07:58:53;9.37;;;7.37;;
12703;SDS011;6416;52.182;7.650;2022-09-29T08:01:19;8.73;;;7.83;;
12703;SDS011;6416;52.182;7.650;2022-09-29T08:03:52;9.30;;;8.50;;
12703;SDS011;6416;52.182;7.650;2022-09-29T08:06:19;9.90;;;8.90;;
12703;SDS011;6416;52.182;7.650;2022-09-29T08:08:46;9.10;;;8.27;;
12703;SDS011;6416;52.182;7.650;2022-09-29T08:11:13;12.33;;;8.53;;
12703;SDS011;6416;52.182;7.650;2022-09-29T08:13:40;10.60;;;8.73;;
12703;SDS011;6416;52.182;7.650;2022-09-29T08:16:06;9.53;;;8.63;;
12703;SDS011;6416;52.182;7.650;2022-09-29T08:18:34;10.07;;;9.07;;
12703;SDS011;6416;52.182;7.650;2022-09-29T08:21:00;10.50;;;9.50;;
12703;SDS011;6416;52.182;7.650;2022-09-29T08:23:26;10.93;;;9.93;;
12703;SDS011;6416;52.182;7.650;2022-09-29T08:26:14;12.37;;;11.17;;
12703;SDS011;6416;52.182;7.650;2022-09-29T08:28:40;12.13;;;10.97;;
12703;SDS011;6416;52.182;7.650;2022-09-29T08:31:10;11.73;;;10.57;;
12703;SDS011;6416;52.182;7.650;2022-09-29T08:33:36;11.27;;;10.30;;
12703;SDS011;6416;52.182;7.650;2022-09-29T08:36:02;10.93;;;9.97;;
12703;SDS011;6416;52.182;7.650;2022-09-29T08:38:30;10.60;;;9.63;;
12703;SDS011;6416;52.182;7.650;2022-09-29T08:40:56;11.90;;;10.80;;
12703;SDS011;6416;52.182;7.650;2022-09-29T08:43:32;11.70;;;10.67;;
12703;SDS011;6416;52.182;7.650;2022-09-29T08:48:36;11.30;;;10.30;;
12703;SDS011;6416;52.182;7.650;2022-09-29T08:51:07;10.67;;;9.70;;
12703;SDS011;6416;52.182;7.650;2022-09-29T08:53:45;10.80;;;9.73;;
12703;SDS011;6416;52.182;7.650;2022-09-29T08:56:14;10.80;;;9.90;;
12703;SDS011;6416;52.182;7.650;2022-09-29T08:58:41;11.37;;;10.33;;
12703;SDS011;6416;52.182;7.650;2022-09-29T09:06:44;12.53;;;11.33;;
12703;SDS011;6416;52.182;7.650;2022-09-29T09:26:02;11.35;;;10.45;;
12703;SDS011;6416;52.182;7.650;2022-09-29T09:28:32;10.57;;;9.57;;
12703;SDS011;6416;52.182;7.650;2022-09-29T09:33:52;10.60;;;9.73;;
12703;SDS011;6416;52.182;7.650;2022-09-29T09:36:22;10.73;;;9.82;;
12703;SDS011;6416;52.182;7.650;2022-09-29T09:38:59;9.98;;;9.15;;
12703;SDS011;6416;52.182;7.650;2022-09-29T09:41:30;9.75;;;8.85;;
12703;SDS011;6416;52.182;7.650;2022-09-29T09:44:21;8.25;;;7.55;;
12703;SDS011;6416;52.182;7.650;2022-09-29T09:46:52;8.50;;;7.80;;
12703;SDS011;6416;52.182;7.650;2022-09-29T09:54:40;6.88;;;6.25;;
12703;SDS011;6416;52.182;7.650;2022-09-29T10:00:07;8.57;;;6.38;;
12703;SDS011;6416;52.182;7.650;2022-09-29T10:05:08;6.03;;;5.55;;
12703;SDS011;6416;52.182;7.650;2022-09-29T10:07:35;5.40;;;4.95;;
12703;SDS011;6416;52.182;7.650;2022-09-29T10:10:01;6.03;;;4.97;;
12703;SDS011;6416;52.182;7.650;2022-09-29T10:12:30;4.93;;;4.53;;
12703;SDS011;6416;52.182;7.650;2022-09-29T10:14:59;5.40;;;4.85;;
12703;SDS011;6416;52.182;7.650;2022-09-29T10:17:43;5.07;;;4.68;;
12703;SDS011;6416;52.182;7.650;2022-09-29T10:20:13;4.85;;;4.43;;
12703;SDS011;6416;52.182;7.650;2022-09-29T10:23:02;4.53;;;4.07;;
12703;SDS011;6416;52.182;7.650;2022-09-29T10:25:58;4.45;;;4.03;;
12703;SDS011;6416;52.182;7.650;2022-09-29T10:31:40;4.32;;;3.85;;
12703;SDS011;6416;52.182;7.650;2022-09-29T10:39:46;4.07;;;3.63;;
12703;SDS011;6416;52.182;7.650;2022-09-29T10:44:40;4.18;;;3.28;;
12703;SDS011;6416;52.182;7.650;2022-09-29T10:47:06;3.28;;;2.97;;
12703;SDS011;6416;52.182;7.650;2022-09-29T10:49:39;3.25;;;2.45;;
12703;SDS011;6416;52.182;7.650;2022-09-29T10:52:05;2.55;;;2.35;;
12703;SDS011;6416;52.182;7.650;2022-09-29T10:54:56;2.85;;;2.63;;
12703;SDS011;6416;52.182;7.650;2022-09-29T10:57:27;4.90;;;2.65;;
12703;SDS011;6416;52.182;7.650;2022-09-29T10:59:55;2.95;;;2.63;;
12703;SDS011;6416;52.182;7.650;2022-09-29T11:05:00;2.40;;;2.15;;
12703;SDS011;6416;52.182;7.650;2022-09-29T11:07:28;3.08;;;2.72;;
12703;SDS011;6416;52.182;7.650;2022-09-29T11:09:55;2.83;;;2.63;;
12703;SDS011;6416;52.182;7.650;2022-09-29T11:12:31;3.15;;;2.92;;
12703;SDS011;6416;52.182;7.650;2022-09-29T11:14:59;2.85;;;2.53;;
12703;SDS011;6416;52.182;7.650;2022-09-29T11:19:58;3.35;;;3.05;;
12703;SDS011;6416;52.182;7.650;2022-09-29T11:28:09;2.45;;;2.25;;
12703;SDS011;6416;52.182;7.650;2022-09-29T11:39:32;3.70;;;2.28;;
12703;SDS011;6416;52.182;7.650;2022-09-29T11:42:27;3.45;;;2.20;;
12703;SDS011;6416;52.182;7.650;2022-09-29T11:45:08;2.70;;;2.47;;
12703;SDS011;6416;52.182;7.650;2022-09-29T11:47:47;3.15;;;2.13;;
12703;SDS011;6416;52.182;7.650;2022-09-29T11:53:13;3.05;;;1.83;;
12703;SDS011;6416;52.182;7.650;2022-09-29T12:04:09;3.15;;;2.85;;
12703;SDS011;6416;52.182;7.650;2022-09-29T12:12:07;4.15;;;3.75;;
12703;SDS011;6416;52.182;7.650;2022-09-29T12:17:27;4.85;;;3.55;;
12703;SDS011;6416;52.182;7.650;2022-09-29T12:20:15;4.80;;;4.13;;
12703;SDS011;6416;52.182;7.650;2022-09-29T12:22:48;3.15;;;2.90;;
12703;SDS011;6416;52.182;7.650;2022-09-29T12:25:16;3.60;;;3.30;;
12703;SDS011;6416;52.182;7.650;2022-09-29T12:27:45;6.95;;;3.13;;
12703;SDS011;6416;52.182;7.650;2022-09-29T12:30:13;3.90;;;3.60;;
12703;SDS011;6416;52.182;7.650;2022-09-29T12:38:36;4.47;;;3.42;;
12703;SDS011;6416;52.182;7.650;2022-09-29T12:41:15;3.40;;;3.05;;
12703;SDS011;6416;52.182;7.650;2022-09-29T12:43:56;4.13;;;2.70;;
12703;SDS011;6416;52.182;7.650;2022-09-29T12:46:32;6.82;;;2.88;;
12703;SDS011;6416;52.182;7.650;2022-09-29T12:52:16;2.50;;;2.20;;
12703;SDS011;6416;52.182;7.650;2022-09-29T12:54:50;3.45;;;2.47;;
12703;SDS011;6416;52.182;7.650;2022-09-29T12:57:20;3.25;;;2.50;;
12703;SDS011;6416;52.182;7.650;2022-09-29T12:59:57;3.90;;;2.60;;
12703;SDS011;6416;52.182;7.650;2022-09-29T13:13:34;2.47;;;1.27;;
12703;SDS011;6416;52.182;7.650;2022-09-29T13:16:29;0.95;;;0.95;;
12703;SDS011;6416;52.182;7.650;2022-09-29T13:27:35;1.67;;;1.00;;
12703;SDS011;6416;52.182;7.650;2022-09-29T13:32:39;1.08;;;0.88;;
12703;SDS011;6416;52.182;7.650;2022-09-29T13:35:13;1.58;;;1.08;;
12703;SDS011;6416;52.182;7.650;2022-09-29T13:37:45;1.33;;;1.23;;
12703;SDS011;6416;52.182;7.650;2022-09-29T13:40:18;0.90;;;0.90;;
12703;SDS011;6416;52.182;7.650;2022-09-29T13:42:49;2.08;;;1.10;;
12703;SDS011;6416;52.182;7.650;2022-09-29T13:58:23;1.25;;;0.90;;
12703;SDS011;6416;52.182;7.650;2022-09-29T14:00:54;1.98;;;1.13;;
12703;SDS011;6416;52.182;7.650;2022-09-29T14:06:13;2.45;;;1.10;;
12703;SDS011;6416;52.182;7.650;2022-09-29T14:16:49;1.38;;;0.90;;
12703;SDS011;6416;52.182;7.650;2022-09-29T14:22:03;2.78;;;0.95;;
12703;SDS011;6416;52.182;7.650;2022-09-29T14:24:49;1.30;;;1.20;;
12703;SDS011;6416;52.182;7.650;2022-09-29T14:27:18;1.60;;;0.95;;
12703;SDS011;6416;52.182;7.650;2022-09-29T14:30:09;1.10;;;1.00;;
12703;SDS011;6416;52.182;7.650;2022-09-29T14:32:56;0.98;;;0.98;;
12703;SDS011;6416;52.182;7.650;2022-09-29T14:40:33;1.05;;;0.98;;
12703;SDS011;6416;52.182;7.650;2022-09-29T14:43:12;1.83;;;0.95;;
12703;SDS011;6416;52.182;7.650;2022-09-29T14:48:19;1.30;;;1.08;;
12703;SDS011;6416;52.182;7.650;2022-09-29T14:51:03;1.20;;;1.10;;
12703;SDS011;6416;52.182;7.650;2022-09-29T14:56:31;1.10;;;0.90;;
12703;SDS011;6416;52.182;7.650;2022-09-29T14:59:10;0.90;;;0.90;;
12703;SDS011;6416;52.182;7.650;2022-09-29T15:04:37;1.90;;;1.27;;
12703;SDS011;6416;52.182;7.650;2022-09-29T15:07:03;1.10;;;1.00;;
12703;SDS011;6416;52.182;7.650;2022-09-29T15:09:33;1.45;;;1.20;;
12703;SDS011;6416;52.182;7.650;2022-09-29T15:12:00;1.33;;;1.17;;
12703;SDS011;6416;52.182;7.650;2022-09-29T15:14:26;1.65;;;1.50;;
12703;SDS011;6416;52.182;7.650;2022-09-29T15:24:48;3.50;;;1.75;;
12703;SDS011;6416;52.182;7.650;2022-09-29T15:27:34;1.77;;;1.17;;
12703;SDS011;6416;52.182;7.650;2022-09-29T15:30:02;1.35;;;1.25;;
12703;SDS011;6416;52.182;7.650;2022-09-29T15:32:29;1.27;;;1.00;;
12703;SDS011;6416;52.182;7.650;2022-09-29T15:35:00;1.38;;;1.02;;
12703;SDS011;6416;52.182;7.650;2022-09-29T15:40:20;1.25;;;1.15;;
12703;SDS011;6416;52.182;7.650;2022-09-29T15:42:47;1.25;;;1.10;;
12703;SDS011;6416;52.182;7.650;2022-09-29T15:45:24;3.15;;;1.48;;
12703;SDS011;6416;52.182;7.650;2022-09-29T15:47:57;1.20;;;1.10;;
12703;SDS011;6416;52.182;7.650;2022-09-29T15:50:26;2.50;;;1.17;;
12703;SDS011;6416;52.182;7.650;2022-09-29T15:52:52;1.63;;;1.40;;
12703;SDS011;6416;52.182;7.650;2022-09-29T15:55:18;3.95;;;2.00;;
12703;SDS011;6416;52.182;7.650;2022-09-29T15:57:47;1.85;;;1.70;;
12703;SDS011;6416;52.182;7.650;2022-09-29T16:02:45;1.70;;;1.50;;
12703;SDS011;6416;52.182;7.650;2022-09-29T16:05:12;1.98;;;1.40;;
12703;SDS011;6416;52.182;7.650;2022-09-29T16:07:52;9.48;;;3.17;;
12703;SDS011;6416;52.182;7.650;2022-09-29T16:10:59;3.75;;;1.40;;
12703;SDS011;6416;52.182;7.650;2022-09-29T16:13:28;5.75;;;2.15;;
12703;SDS011;6416;52.182;7.650;2022-09-29T16:16:06;1.90;;;1.48;;
12703;SDS011;6416;52.182;7.650;2022-09-29T16:21:08;1.70;;;1.20;;
12703;SDS011;6416;52.182;7.650;2022-09-29T16:23:40;2.60;;;1.10;;
12703;SDS011;6416;52.182;7.650;2022-09-29T16:31:38;1.20;;;1.10;;
12703;SDS011;6416;52.182;7.650;2022-09-29T16:36:49;1.40;;;1.30;;
12703;SDS011;6416;52.182;7.650;2022-09-29T16:39:16;1.20;;;1.10;;
12703;SDS011;6416;52.182;7.650;2022-09-29T16:41:47;1.52;;;1.13;;
12703;SDS011;6416;52.182;7.650;2022-09-29T16:46:51;1.60;;;1.30;;
12703;SDS011;6416;52.182;7.650;2022-09-29T16:49:29;0.90;;;0.90;;
12703;SDS011;6416;52.182;7.650;2022-09-29T16:51:58;1.25;;;1.15;;
12703;SDS011;6416;52.182;7.650;2022-09-29T16:54:44;1.10;;;1.10;;
12703;SDS011;6416;52.182;7.650;2022-09-29T16:59:53;1.50;;;1.40;;
12703;SDS011;6416;52.182;7.650;2022-09-29T17:02:24;1.50;;;1.40;;
12703;SDS011;6416;52.182;7.650;2022-09-29T17:04:53;1.80;;;1.70;;
12703;SDS011;6416;52.182;7.650;2022-09-29T17:07:21;1.95;;;1.80;;
12703;SDS011;6416;52.182;7.650;2022-09-29T17:09:50;2.13;;;1.95;;
12703;SDS011;6416;52.182;7.650;2022-09-29T17:12:26;2.10;;;1.85;;
12703;SDS011;6416;52.182;7.650;2022-09-29T17:14:53;1.92;;;1.73;;
12703;SDS011;6416;52.182;7.650;2022-09-29T17:17:19;1.90;;;1.80;;
12703;SDS011;6416;52.182;7.650;2022-09-29T17:19:50;2.28;;;2.03;;
12703;SDS011;6416;52.182;7.650;2022-09-29T17:24:53;1.88;;;1.55;;
12703;SDS011;6416;52.182;7.650;2022-09-29T17:27:19;2.00;;;1.70;;
12703;SDS011;6416;52.182;7.650;2022-09-29T17:29:45;1.60;;;1.50;;
12703;SDS011;6416;52.182;7.650;2022-09-29T17:32:11;1.88;;;1.70;;
12703;SDS011;6416;52.182;7.650;2022-09-29T17:34:38;2.58;;;1.80;;
12703;SDS011;6416;52.182;7.650;2022-09-29T17:37:04;1.50;;;1.40;;
12703;SDS011;6416;52.182;7.650;2022-09-29T17:39:29;1.60;;;1.50;;
12703;SDS011;6416;52.182;7.650;2022-09-29T17:41:56;5.37;;;1.90;;
12703;SDS011;6416;52.182;7.650;2022-09-29T17:44:21;2.03;;;1.80;;
12703;SDS011;6416;52.182;7.650;2022-09-29T17:46:47;2.50;;;2.30;;
12703;SDS011;6416;52.182;7.650;2022-09-29T17:49:13;2.33;;;2.13;;
12703;SDS011;6416;52.182;7.650;2022-09-29T17:51:41;2.23;;;2.03;;
12703;SDS011;6416;52.182;7.650;2022-09-29T17:54:06;2.53;;;2.00;;
12703;SDS011;6416;52.182;7.650;2022-09-29T17:56:33;2.23;;;1.90;;
12703;SDS011;6416;52.182;7.650;2022-09-29T17:59:03;2.53;;;1.60;;
12703;SDS011;6416;52.182;7.650;2022-09-29T18:01:29;1.53;;;1.40;;
12703;SDS011;6416;52.182;7.650;2022-09-29T18:03:56;2.53;;;1.50;;
12703;SDS011;6416;52.182;7.650;2022-09-29T18:06:22;1.60;;;1.50;;
12703;SDS011;6416;52.182;7.650;2022-09-29T18:08:47;1.50;;;1.40;;
12703;SDS011;6416;52.182;7.650;2022-09-29T18:11:13;1.63;;;1.50;;
12703;SDS011;6416;52.182;7.650;2022-09-29T18:13:38;2.73;;;1.60;;
12703;SDS011;6416;52.182;7.650;2022-09-29T18:16:04;2.97;;;1.57;;
12703;SDS011;6416;52.182;7.650;2022-09-29T18:18:30;1.57;;;1.47;;
12703;SDS011;6416;52.182;7.650;2022-09-29T18:20:55;3.77;;;1.67;;
12703;SDS011;6416;52.182;7.650;2022-09-29T18:23:21;2.73;;;1.70;;
12703;SDS011;6416;52.182;7.650;2022-09-29T18:25:47;1.60;;;1.50;;
12703;SDS011;6416;52.182;7.650;2022-09-29T18:28:14;1.60;;;1.50;;
12703;SDS011;6416;52.182;7.650;2022-09-29T18:30:41;1.73;;;1.63;;
12703;SDS011;6416;52.182;7.650;2022-09-29T18:33:12;1.60;;;1.50;;
12703;SDS011;6416;52.182;7.650;2022-09-29T18:35:40;1.57;;;1.47;;
12703;SDS011;6416;52.182;7.650;2022-09-29T18:38:07;2.57;;;1.90;;
12703;SDS011;6416;52.182;7.650;2022-09-29T18:40:33;2.60;;;1.90;;
12703;SDS011;6416;52.182;7.650;2022-09-29T18:42:59;2.13;;;1.90;;
12703;SDS011;6416;52.182;7.650;2022-09-29T18:45:26;2.73;;;2.30;;
12703;SDS011;6416;52.182;7.650;2022-09-29T18:47:54;3.13;;;2.10;;
12703;SDS011;6416;52.182;7.650;2022-09-29T18:50:22;2.20;;;2.00;;
12703;SDS011;6416;52.182;7.650;2022-09-29T18:52:49;1.90;;;1.80;;
12703;SDS011;6416;52.182;7.650;2022-09-29T18:55:16;2.47;;;2.23;;
12703;SDS011;6416;52.182;7.650;2022-09-29T18:57:44;3.50;;;2.30;;